sensor_id;sensor_type;location;lat;lon;timestamp;temperature;humidity
5334;DHT22;2689;50.954;7.116;2023-12-22T00:00:01;6.50;99.90
5334;DHT22;2689;50.954;7.116;2023-12-22T00:02:32;6.30;99.90
5334;DHT22;2689;50.954;7.116;2023-12-22T00:04:59;6.20;99.90
5334;DHT22;2689;50.954;7.116;2023-12-22T00:07:25;6.10;99.90
5334;DHT22;2689;50.954;7.116;2023-12-22T00:09:53;6.10;99.90
5334;DHT22;2689;50.954;7.116;2023-12-22T00:12:20;6.00;99.90
5334;DHT22;2689;50.954;7.116;2023-12-22T00:14:47;6.00;99.90
5334;DHT22;2689;50.954;7.116;2023-12-22T00:17:13;5.90;99.90
5334;DHT22;2689;50.954;7.116;2023-12-22T00:19:42;5.90;99.90
5334;DHT22;2689;50.954;7.116;2023-12-22T00:22:10;5.80;99.90
5334;DHT22;2689;50.954;7.116;2023-12-22T00:24:37;5.80;99.90
5334;DHT22;2689;50.954;7.116;2023-12-22T00:27:04;5.80;99.90
5334;DHT22;2689;50.954;7.116;2023-12-22T00:29:31;5.80;99.90
5334;DHT22;2689;50.954;7.116;2023-12-22T00:32:01;5.80;99.90
5334;DHT22;2689;50.954;7.116;2023-12-22T00:34:27;5.80;99.90
5334;DHT22;2689;50.954;7.116;2023-12-22T00:36:56;5.80;99.90
5334;DHT22;2689;50.954;7.116;2023-12-22T00:39:22;5.80;99.90
5334;DHT22;2689;50.954;7.116;2023-12-22T00:41:49;5.80;99.90
5334;DHT22;2689;50.954;7.116;2023-12-22T00:44:16;5.90;99.90
5334;DHT22;2689;50.954;7.116;2023-12-22T00:46:43;5.90;99.90
5334;DHT22;2689;50.954;7.116;2023-12-22T00:49:12;5.90;99.90
5334;DHT22;2689;50.954;7.116;2023-12-22T00:51:38;6.00;99.90
5334;DHT22;2689;50.954;7.116;2023-12-22T00:54:07;6.10;99.90
5334;DHT22;2689;50.954;7.116;2023-12-22T00:56:33;6.10;99.90
5334;DHT22;2689;50.954;7.116;2023-12-22T00:59:00;6.10;99.90
5334;DHT22;2689;50.954;7.116;2023-12-22T01:01:27;6.20;99.90
5334;DHT22;2689;50.954;7.116;2023-12-22T01:03:54;6.20;99.90
5334;DHT22;2689;50.954;7.116;2023-12-22T01:06:23;6.30;99.90
5334;DHT22;2689;50.954;7.116;2023-12-22T01:08:50;6.30;99.90
5334;DHT22;2689;50.954;7.116;2023-12-22T01:11:18;6.40;99.90
5334;DHT22;2689;50.954;7.116;2023-12-22T01:13:45;6.40;99.90
5334;DHT22;2689;50.954;7.116;2023-12-22T01:16:12;6.50;99.90
5334;DHT22;2689;50.954;7.116;2023-12-22T01:18:40;6.50;99.90
5334;DHT22;2689;50.954;7.116;2023-12-22T01:21:09;6.50;99.90
5334;DHT22;2689;50.954;7.116;2023-12-22T01:23:36;6.60;99.90
5334;DHT22;2689;50.954;7.116;2023-12-22T01:26:02;6.60;99.90
5334;DHT22;2689;50.954;7.116;2023-12-22T01:28:31;6.60;99.90
5334;DHT22;2689;50.954;7.116;2023-12-22T01:30:58;6.60;99.90
5334;DHT22;2689;50.954;7.116;2023-12-22T01:33:24;6.60;99.90
5334;DHT22;2689;50.954;7.116;2023-12-22T01:35:51;6.60;99.90
5334;DHT22;2689;50.954;7.116;2023-12-22T01:38:18;6.60;99.90
5334;DHT22;2689;50.954;7.116;2023-12-22T01:40:45;6.60;99.90
5334;DHT22;2689;50.954;7.116;2023-12-22T01:43:12;6.60;99.90
5334;DHT22;2689;50.954;7.116;2023-12-22T01:45:42;6.60;99.90
5334;DHT22;2689;50.954;7.116;2023-12-22T01:48:11;6.60;99.90
5334;DHT22;2689;50.954;7.116;2023-12-22T01:50:38;6.60;99.90
5334;DHT22;2689;50.954;7.116;2023-12-22T01:53:05;6.60;99.90
5334;DHT22;2689;50.954;7.116;2023-12-22T01:55:32;6.60;99.90
5334;DHT22;2689;50.954;7.116;2023-12-22T01:57:59;6.50;99.90
5334;DHT22;2689;50.954;7.116;2023-12-22T02:00:26;6.50;99.90
5334;DHT22;2689;50.954;7.116;2023-12-22T02:02:55;6.50;99.90
5334;DHT22;2689;50.954;7.116;2023-12-22T02:05:22;6.50;99.90
5334;DHT22;2689;50.954;7.116;2023-12-22T02:07:48;6.40;99.90
5334;DHT22;2689;50.954;7.116;2023-12-22T02:10:15;6.50;99.90
5334;DHT22;2689;50.954;7.116;2023-12-22T02:12:42;6.40;99.90
5334;DHT22;2689;50.954;7.116;2023-12-22T02:15:11;6.50;99.90
5334;DHT22;2689;50.954;7.116;2023-12-22T02:17:46;6.50;99.90
5334;DHT22;2689;50.954;7.116;2023-12-22T02:20:18;6.50;99.90
5334;DHT22;2689;50.954;7.116;2023-12-22T02:22:51;6.50;99.90
5334;DHT22;2689;50.954;7.116;2023-12-22T02:25:18;6.60;99.90
5334;DHT22;2689;50.954;7.116;2023-12-22T02:27:47;6.60;99.90
5334;DHT22;2689;50.954;7.116;2023-12-22T02:30:22;6.60;99.90
5334;DHT22;2689;50.954;7.116;2023-12-22T02:32:54;6.60;99.90
5334;DHT22;2689;50.954;7.116;2023-12-22T02:35:25;6.50;99.90
5334;DHT22;2689;50.954;7.116;2023-12-22T02:37:54;6.50;99.90
5334;DHT22;2689;50.954;7.116;2023-12-22T02:40:23;6.60;99.90
5334;DHT22;2689;50.954;7.116;2023-12-22T02:42:53;6.60;99.90
5334;DHT22;2689;50.954;7.116;2023-12-22T02:45:20;6.60;99.90
5334;DHT22;2689;50.954;7.116;2023-12-22T02:47:47;6.60;99.90
5334;DHT22;2689;50.954;7.116;2023-12-22T02:50:16;6.60;99.90
5334;DHT22;2689;50.954;7.116;2023-12-22T02:52:43;6.60;99.90
5334;DHT22;2689;50.954;7.116;2023-12-22T02:55:11;6.50;99.90
5334;DHT22;2689;50.954;7.116;2023-12-22T02:57:38;6.50;99.90
5334;DHT22;2689;50.954;7.116;2023-12-22T03:00:06;6.50;99.90
5334;DHT22;2689;50.954;7.116;2023-12-22T03:02:33;6.50;99.90
5334;DHT22;2689;50.954;7.116;2023-12-22T03:05:00;6.40;99.90
5334;DHT22;2689;50.954;7.116;2023-12-22T03:07:27;6.40;99.90
5334;DHT22;2689;50.954;7.116;2023-12-22T03:09:55;6.50;99.90
5334;DHT22;2689;50.954;7.116;2023-12-22T03:12:24;6.50;99.90
5334;DHT22;2689;50.954;7.116;2023-12-22T03:14:51;6.50;99.90
5334;DHT22;2689;50.954;7.116;2023-12-22T03:17:18;6.50;99.90
5334;DHT22;2689;50.954;7.116;2023-12-22T03:19:45;6.60;99.90
5334;DHT22;2689;50.954;7.116;2023-12-22T03:22:12;6.60;99.90
5334;DHT22;2689;50.954;7.116;2023-12-22T03:24:39;6.60;99.90
5334;DHT22;2689;50.954;7.116;2023-12-22T03:27:06;6.60;99.90
5334;DHT22;2689;50.954;7.116;2023-12-22T03:29:37;6.50;99.90
5334;DHT22;2689;50.954;7.116;2023-12-22T03:32:04;6.50;99.90
5334;DHT22;2689;50.954;7.116;2023-12-22T03:34:32;6.50;99.90
5334;DHT22;2689;50.954;7.116;2023-12-22T03:36:59;6.50;99.90
5334;DHT22;2689;50.954;7.116;2023-12-22T03:39:26;6.50;99.90
5334;DHT22;2689;50.954;7.116;2023-12-22T03:41:53;6.60;99.90
5334;DHT22;2689;50.954;7.116;2023-12-22T03:44:22;6.60;99.90
5334;DHT22;2689;50.954;7.116;2023-12-22T03:46:50;6.60;99.90
5334;DHT22;2689;50.954;7.116;2023-12-22T03:49:17;6.60;99.90
5334;DHT22;2689;50.954;7.116;2023-12-22T03:51:45;6.70;99.90
5334;DHT22;2689;50.954;7.116;2023-12-22T03:54:11;6.70;99.90
5334;DHT22;2689;50.954;7.116;2023-12-22T03:56:41;6.70;99.90
5334;DHT22;2689;50.954;7.116;2023-12-22T03:59:10;6.70;99.90
5334;DHT22;2689;50.954;7.116;2023-12-22T04:01:36;6.70;99.90
5334;DHT22;2689;50.954;7.116;2023-12-22T04:04:05;6.70;99.90
5334;DHT22;2689;50.954;7.116;2023-12-22T04:06:32;6.80;99.90
5334;DHT22;2689;50.954;7.116;2023-12-22T04:08:59;6.70;99.90
5334;DHT22;2689;50.954;7.116;2023-12-22T04:11:26;6.70;99.90
5334;DHT22;2689;50.954;7.116;2023-12-22T04:13:53;6.70;99.90
5334;DHT22;2689;50.954;7.116;2023-12-22T04:16:23;6.80;99.90
5334;DHT22;2689;50.954;7.116;2023-12-22T04:18:50;6.80;99.90
5334;DHT22;2689;50.954;7.116;2023-12-22T04:21:18;6.80;99.90
5334;DHT22;2689;50.954;7.116;2023-12-22T04:23:46;6.90;99.90
5334;DHT22;2689;50.954;7.116;2023-12-22T04:26:13;6.90;99.90
5334;DHT22;2689;50.954;7.116;2023-12-22T04:28:40;7.00;99.90
5334;DHT22;2689;50.954;7.116;2023-12-22T04:31:07;7.00;99.90
5334;DHT22;2689;50.954;7.116;2023-12-22T04:33:34;7.00;99.90
5334;DHT22;2689;50.954;7.116;2023-12-22T04:36:00;7.10;99.90
5334;DHT22;2689;50.954;7.116;2023-12-22T04:38:29;7.10;99.90
5334;DHT22;2689;50.954;7.116;2023-12-22T04:40:56;7.20;99.90
5334;DHT22;2689;50.954;7.116;2023-12-22T04:43:23;7.20;99.90
5334;DHT22;2689;50.954;7.116;2023-12-22T04:45:53;7.30;99.90
5334;DHT22;2689;50.954;7.116;2023-12-22T04:48:20;7.30;99.90
5334;DHT22;2689;50.954;7.116;2023-12-22T04:50:48;7.30;99.90
5334;DHT22;2689;50.954;7.116;2023-12-22T04:53:14;7.30;99.90
5334;DHT22;2689;50.954;7.116;2023-12-22T04:55:45;7.30;99.90
5334;DHT22;2689;50.954;7.116;2023-12-22T04:58:12;7.40;99.90
5334;DHT22;2689;50.954;7.116;2023-12-22T05:00:42;7.40;99.90
5334;DHT22;2689;50.954;7.116;2023-12-22T05:03:09;7.40;99.90
5334;DHT22;2689;50.954;7.116;2023-12-22T05:05:36;7.40;99.90
5334;DHT22;2689;50.954;7.116;2023-12-22T05:08:03;7.30;99.90
5334;DHT22;2689;50.954;7.116;2023-12-22T05:10:30;7.30;99.90
5334;DHT22;2689;50.954;7.116;2023-12-22T05:12:59;7.30;99.90
5334;DHT22;2689;50.954;7.116;2023-12-22T05:15:25;7.30;99.90
5334;DHT22;2689;50.954;7.116;2023-12-22T05:17:52;7.40;99.90
5334;DHT22;2689;50.954;7.116;2023-12-22T05:20:19;7.40;99.90
5334;DHT22;2689;50.954;7.116;2023-12-22T05:22:47;7.50;99.90
5334;DHT22;2689;50.954;7.116;2023-12-22T05:25:18;7.50;99.90
5334;DHT22;2689;50.954;7.116;2023-12-22T05:27:44;7.60;99.90
5334;DHT22;2689;50.954;7.116;2023-12-22T05:30:16;7.60;99.90
5334;DHT22;2689;50.954;7.116;2023-12-22T05:32:44;7.60;99.90
5334;DHT22;2689;50.954;7.116;2023-12-22T05:35:11;7.60;99.90
5334;DHT22;2689;50.954;7.116;2023-12-22T05:37:38;7.70;99.90
5334;DHT22;2689;50.954;7.116;2023-12-22T05:40:09;7.80;99.90
5334;DHT22;2689;50.954;7.116;2023-12-22T05:42:37;7.80;99.90
5334;DHT22;2689;50.954;7.116;2023-12-22T05:45:05;7.90;99.90
5334;DHT22;2689;50.954;7.116;2023-12-22T05:47:33;7.90;99.90
5334;DHT22;2689;50.954;7.116;2023-12-22T05:50:01;8.00;99.90
5334;DHT22;2689;50.954;7.116;2023-12-22T05:52:28;8.00;99.90
5334;DHT22;2689;50.954;7.116;2023-12-22T05:54:55;8.10;99.90
5334;DHT22;2689;50.954;7.116;2023-12-22T05:57:22;8.10;99.90
5334;DHT22;2689;50.954;7.116;2023-12-22T05:59:51;8.20;99.90
5334;DHT22;2689;50.954;7.116;2023-12-22T06:02:18;8.30;99.90
5334;DHT22;2689;50.954;7.116;2023-12-22T06:04:46;8.30;99.90
5334;DHT22;2689;50.954;7.116;2023-12-22T06:07:12;8.40;99.90
5334;DHT22;2689;50.954;7.116;2023-12-22T06:09:40;8.40;99.90
5334;DHT22;2689;50.954;7.116;2023-12-22T06:12:15;8.40;99.90
5334;DHT22;2689;50.954;7.116;2023-12-22T06:14:42;8.40;99.90
5334;DHT22;2689;50.954;7.116;2023-12-22T06:17:08;8.40;99.90
5334;DHT22;2689;50.954;7.116;2023-12-22T06:19:36;8.50;99.90
5334;DHT22;2689;50.954;7.116;2023-12-22T06:22:04;8.50;99.90
5334;DHT22;2689;50.954;7.116;2023-12-22T06:24:31;8.60;99.90
5334;DHT22;2689;50.954;7.116;2023-12-22T06:26:58;8.60;99.90
5334;DHT22;2689;50.954;7.116;2023-12-22T06:29:25;8.60;99.90
5334;DHT22;2689;50.954;7.116;2023-12-22T06:31:52;8.60;99.90
5334;DHT22;2689;50.954;7.116;2023-12-22T06:34:22;8.60;99.90
5334;DHT22;2689;50.954;7.116;2023-12-22T06:36:50;8.60;99.90
5334;DHT22;2689;50.954;7.116;2023-12-22T06:39:18;8.60;99.90
5334;DHT22;2689;50.954;7.116;2023-12-22T06:41:46;8.60;99.90
5334;DHT22;2689;50.954;7.116;2023-12-22T06:44:13;8.60;99.90
5334;DHT22;2689;50.954;7.116;2023-12-22T06:46:40;8.60;99.90
5334;DHT22;2689;50.954;7.116;2023-12-22T06:49:07;8.60;99.90
5334;DHT22;2689;50.954;7.116;2023-12-22T06:51:34;8.60;99.90
5334;DHT22;2689;50.954;7.116;2023-12-22T06:54:02;8.70;99.90
5334;DHT22;2689;50.954;7.116;2023-12-22T06:56:47;8.70;99.90
5334;DHT22;2689;50.954;7.116;2023-12-22T06:59:18;8.70;99.90
5334;DHT22;2689;50.954;7.116;2023-12-22T07:01:44;8.70;99.90
5334;DHT22;2689;50.954;7.116;2023-12-22T07:04:11;8.80;99.90
5334;DHT22;2689;50.954;7.116;2023-12-22T07:06:42;8.80;99.90
5334;DHT22;2689;50.954;7.116;2023-12-22T07:09:31;8.70;99.90
5334;DHT22;2689;50.954;7.116;2023-12-22T07:12:00;8.60;99.90
5334;DHT22;2689;50.954;7.116;2023-12-22T07:14:27;8.60;99.90
5334;DHT22;2689;50.954;7.116;2023-12-22T07:16:55;8.70;99.90
5334;DHT22;2689;50.954;7.116;2023-12-22T07:19:23;8.60;99.90
5334;DHT22;2689;50.954;7.116;2023-12-22T07:21:50;8.60;99.90
5334;DHT22;2689;50.954;7.116;2023-12-22T07:24:20;8.60;99.90
5334;DHT22;2689;50.954;7.116;2023-12-22T07:26:47;8.60;99.90
5334;DHT22;2689;50.954;7.116;2023-12-22T07:29:16;8.50;99.90
5334;DHT22;2689;50.954;7.116;2023-12-22T07:31:44;8.50;99.90
5334;DHT22;2689;50.954;7.116;2023-12-22T07:34:11;8.40;99.90
5334;DHT22;2689;50.954;7.116;2023-12-22T07:36:39;8.40;99.90
5334;DHT22;2689;50.954;7.116;2023-12-22T07:39:06;8.40;99.90
5334;DHT22;2689;50.954;7.116;2023-12-22T07:41:34;8.30;99.90
5334;DHT22;2689;50.954;7.116;2023-12-22T07:44:01;8.20;99.90
5334;DHT22;2689;50.954;7.116;2023-12-22T07:46:29;7.90;99.90
5334;DHT22;2689;50.954;7.116;2023-12-22T07:48:56;7.80;99.90
5334;DHT22;2689;50.954;7.116;2023-12-22T07:51:29;7.80;99.90
5334;DHT22;2689;50.954;7.116;2023-12-22T07:53:56;7.70;99.90
5334;DHT22;2689;50.954;7.116;2023-12-22T07:56:24;7.70;99.90
5334;DHT22;2689;50.954;7.116;2023-12-22T07:59:00;7.70;99.90
5334;DHT22;2689;50.954;7.116;2023-12-22T08:01:36;7.60;99.90
5334;DHT22;2689;50.954;7.116;2023-12-22T08:04:07;7.70;99.90
5334;DHT22;2689;50.954;7.116;2023-12-22T08:06:35;7.60;99.90
5334;DHT22;2689;50.954;7.116;2023-12-22T08:09:02;7.50;99.90
5334;DHT22;2689;50.954;7.116;2023-12-22T08:11:30;7.40;99.90
5334;DHT22;2689;50.954;7.116;2023-12-22T08:13:59;7.30;99.90
5334;DHT22;2689;50.954;7.116;2023-12-22T08:16:26;7.30;99.90
5334;DHT22;2689;50.954;7.116;2023-12-22T08:18:55;7.30;99.90
5334;DHT22;2689;50.954;7.116;2023-12-22T08:21:34;7.40;99.90
5334;DHT22;2689;50.954;7.116;2023-12-22T08:24:15;7.40;99.90
5334;DHT22;2689;50.954;7.116;2023-12-22T08:26:44;7.50;99.90
5334;DHT22;2689;50.954;7.116;2023-12-22T08:29:12;7.50;99.90
5334;DHT22;2689;50.954;7.116;2023-12-22T08:31:39;7.50;99.90
5334;DHT22;2689;50.954;7.116;2023-12-22T08:34:11;7.60;99.90
5334;DHT22;2689;50.954;7.116;2023-12-22T08:36:40;7.70;99.90
5334;DHT22;2689;50.954;7.116;2023-12-22T08:39:07;7.70;99.90
5334;DHT22;2689;50.954;7.116;2023-12-22T08:41:34;7.80;99.90
5334;DHT22;2689;50.954;7.116;2023-12-22T08:44:03;7.90;99.90
5334;DHT22;2689;50.954;7.116;2023-12-22T08:46:35;7.90;99.90
5334;DHT22;2689;50.954;7.116;2023-12-22T08:49:03;8.00;99.90
5334;DHT22;2689;50.954;7.116;2023-12-22T08:51:34;8.10;99.90
5334;DHT22;2689;50.954;7.116;2023-12-22T08:54:01;8.20;99.90
5334;DHT22;2689;50.954;7.116;2023-12-22T08:56:35;8.20;99.90
5334;DHT22;2689;50.954;7.116;2023-12-22T08:59:17;8.30;99.90
5334;DHT22;2689;50.954;7.116;2023-12-22T09:01:45;8.30;99.90
5334;DHT22;2689;50.954;7.116;2023-12-22T09:04:22;8.40;99.90
5334;DHT22;2689;50.954;7.116;2023-12-22T09:06:53;8.50;99.90
5334;DHT22;2689;50.954;7.116;2023-12-22T09:10:00;8.50;99.90
5334;DHT22;2689;50.954;7.116;2023-12-22T09:12:37;8.60;99.90
5334;DHT22;2689;50.954;7.116;2023-12-22T09:15:30;8.70;99.90
5334;DHT22;2689;50.954;7.116;2023-12-22T09:18:15;8.80;99.90
5334;DHT22;2689;50.954;7.116;2023-12-22T09:20:47;8.80;99.90
5334;DHT22;2689;50.954;7.116;2023-12-22T09:23:26;8.90;99.90
5334;DHT22;2689;50.954;7.116;2023-12-22T09:25:55;8.90;99.90
5334;DHT22;2689;50.954;7.116;2023-12-22T09:28:37;9.00;99.90
5334;DHT22;2689;50.954;7.116;2023-12-22T09:31:05;9.00;99.90
5334;DHT22;2689;50.954;7.116;2023-12-22T09:33:34;9.10;99.90
5334;DHT22;2689;50.954;7.116;2023-12-22T09:36:04;9.10;99.90
5334;DHT22;2689;50.954;7.116;2023-12-22T09:38:42;9.10;99.90
5334;DHT22;2689;50.954;7.116;2023-12-22T09:41:12;9.20;99.90
5334;DHT22;2689;50.954;7.116;2023-12-22T09:43:42;9.20;99.90
5334;DHT22;2689;50.954;7.116;2023-12-22T09:46:23;9.20;99.90
5334;DHT22;2689;50.954;7.116;2023-12-22T09:48:55;9.20;99.90
5334;DHT22;2689;50.954;7.116;2023-12-22T09:51:27;9.30;99.90
5334;DHT22;2689;50.954;7.116;2023-12-22T09:54:13;9.30;99.90
5334;DHT22;2689;50.954;7.116;2023-12-22T09:56:46;9.30;99.90
5334;DHT22;2689;50.954;7.116;2023-12-22T09:59:17;9.20;99.90
5334;DHT22;2689;50.954;7.116;2023-12-22T10:01:51;9.30;99.90
5334;DHT22;2689;50.954;7.116;2023-12-22T10:04:20;9.40;99.90
5334;DHT22;2689;50.954;7.116;2023-12-22T10:06:48;9.40;99.90
5334;DHT22;2689;50.954;7.116;2023-12-22T10:09:21;9.40;99.90
5334;DHT22;2689;50.954;7.116;2023-12-22T10:11:51;9.50;99.90
5334;DHT22;2689;50.954;7.116;2023-12-22T10:14:20;9.50;99.90
5334;DHT22;2689;50.954;7.116;2023-12-22T10:16:49;9.50;99.90
5334;DHT22;2689;50.954;7.116;2023-12-22T10:19:17;9.50;99.90
5334;DHT22;2689;50.954;7.116;2023-12-22T10:21:46;9.50;99.90
5334;DHT22;2689;50.954;7.116;2023-12-22T10:24:43;9.50;99.90
5334;DHT22;2689;50.954;7.116;2023-12-22T10:27:14;9.50;99.90
5334;DHT22;2689;50.954;7.116;2023-12-22T10:29:53;9.60;99.90
5334;DHT22;2689;50.954;7.116;2023-12-22T10:32:26;9.60;99.90
5334;DHT22;2689;50.954;7.116;2023-12-22T10:34:55;9.60;99.90
5334;DHT22;2689;50.954;7.116;2023-12-22T10:37:25;9.60;99.90
5334;DHT22;2689;50.954;7.116;2023-12-22T10:39:56;9.60;99.90
5334;DHT22;2689;50.954;7.116;2023-12-22T10:42:32;9.60;99.90
5334;DHT22;2689;50.954;7.116;2023-12-22T10:45:01;9.70;99.90
5334;DHT22;2689;50.954;7.116;2023-12-22T10:47:39;9.60;99.90
5334;DHT22;2689;50.954;7.116;2023-12-22T10:50:14;9.60;99.90
5334;DHT22;2689;50.954;7.116;2023-12-22T10:52:49;9.70;99.90
5334;DHT22;2689;50.954;7.116;2023-12-22T10:55:29;9.70;99.90
5334;DHT22;2689;50.954;7.116;2023-12-22T10:58:02;9.70;99.90
5334;DHT22;2689;50.954;7.116;2023-12-22T11:00:45;9.70;99.90
5334;DHT22;2689;50.954;7.116;2023-12-22T11:03:27;9.70;99.90
5334;DHT22;2689;50.954;7.116;2023-12-22T11:06:04;9.60;99.90
5334;DHT22;2689;50.954;7.116;2023-12-22T11:08:51;9.50;99.90
5334;DHT22;2689;50.954;7.116;2023-12-22T11:11:35;9.50;99.90
5334;DHT22;2689;50.954;7.116;2023-12-22T11:14:08;9.40;99.90
5334;DHT22;2689;50.954;7.116;2023-12-22T11:16:36;9.40;99.90
5334;DHT22;2689;50.954;7.116;2023-12-22T11:19:14;9.30;99.90
5334;DHT22;2689;50.954;7.116;2023-12-22T11:21:43;9.40;99.90
5334;DHT22;2689;50.954;7.116;2023-12-22T11:24:13;9.30;99.90
5334;DHT22;2689;50.954;7.116;2023-12-22T11:26:58;9.30;99.90
5334;DHT22;2689;50.954;7.116;2023-12-22T11:29:41;9.40;99.90
5334;DHT22;2689;50.954;7.116;2023-12-22T11:32:14;9.40;99.90
5334;DHT22;2689;50.954;7.116;2023-12-22T11:34:45;9.40;99.90
5334;DHT22;2689;50.954;7.116;2023-12-22T11:37:15;9.50;99.90
5334;DHT22;2689;50.954;7.116;2023-12-22T11:39:44;9.50;99.90
5334;DHT22;2689;50.954;7.116;2023-12-22T11:42:21;9.60;99.90
5334;DHT22;2689;50.954;7.116;2023-12-22T11:44:52;9.70;99.90
5334;DHT22;2689;50.954;7.116;2023-12-22T11:47:23;9.70;99.90
5334;DHT22;2689;50.954;7.116;2023-12-22T11:49:51;9.70;99.90
5334;DHT22;2689;50.954;7.116;2023-12-22T11:52:26;9.80;99.90
5334;DHT22;2689;50.954;7.116;2023-12-22T11:54:56;9.80;99.90
5334;DHT22;2689;50.954;7.116;2023-12-22T11:57:36;9.90;99.90
5334;DHT22;2689;50.954;7.116;2023-12-22T12:00:07;9.90;99.90
5334;DHT22;2689;50.954;7.116;2023-12-22T12:02:39;10.00;99.90
5334;DHT22;2689;50.954;7.116;2023-12-22T12:05:09;10.00;99.90
5334;DHT22;2689;50.954;7.116;2023-12-22T12:07:38;10.00;99.90
5334;DHT22;2689;50.954;7.116;2023-12-22T12:10:05;10.00;99.90
5334;DHT22;2689;50.954;7.116;2023-12-22T12:12:35;10.10;99.90
5334;DHT22;2689;50.954;7.116;2023-12-22T12:15:16;10.10;99.90
5334;DHT22;2689;50.954;7.116;2023-12-22T12:17:58;10.00;99.90
5334;DHT22;2689;50.954;7.116;2023-12-22T12:20:26;10.00;99.90
5334;DHT22;2689;50.954;7.116;2023-12-22T12:22:56;10.10;99.90
5334;DHT22;2689;50.954;7.116;2023-12-22T12:25:27;10.10;99.90
5334;DHT22;2689;50.954;7.116;2023-12-22T12:28:03;10.20;99.90
5334;DHT22;2689;50.954;7.116;2023-12-22T12:30:31;10.30;99.90
5334;DHT22;2689;50.954;7.116;2023-12-22T12:33:09;10.30;99.90
5334;DHT22;2689;50.954;7.116;2023-12-22T12:35:39;10.30;99.90
5334;DHT22;2689;50.954;7.116;2023-12-22T12:38:07;10.40;99.90
5334;DHT22;2689;50.954;7.116;2023-12-22T12:40:39;10.30;99.90
5334;DHT22;2689;50.954;7.116;2023-12-22T12:43:15;10.40;99.90
5334;DHT22;2689;50.954;7.116;2023-12-22T12:45:43;10.50;99.90
5334;DHT22;2689;50.954;7.116;2023-12-22T12:48:17;10.50;99.90
5334;DHT22;2689;50.954;7.116;2023-12-22T12:50:45;10.60;99.90
5334;DHT22;2689;50.954;7.116;2023-12-22T12:53:12;10.60;99.90
5334;DHT22;2689;50.954;7.116;2023-12-22T12:55:39;10.70;99.90
5334;DHT22;2689;50.954;7.116;2023-12-22T12:58:06;10.70;99.90
5334;DHT22;2689;50.954;7.116;2023-12-22T13:00:34;10.80;99.90
5334;DHT22;2689;50.954;7.116;2023-12-22T13:03:09;10.80;99.90
5334;DHT22;2689;50.954;7.116;2023-12-22T13:05:36;10.80;99.90
5334;DHT22;2689;50.954;7.116;2023-12-22T13:08:07;10.90;99.90
5334;DHT22;2689;50.954;7.116;2023-12-22T13:10:35;10.90;99.90
5334;DHT22;2689;50.954;7.116;2023-12-22T13:13:02;10.90;99.90
5334;DHT22;2689;50.954;7.116;2023-12-22T13:15:30;10.90;99.90
5334;DHT22;2689;50.954;7.116;2023-12-22T13:17:59;10.90;99.90
5334;DHT22;2689;50.954;7.116;2023-12-22T13:20:48;10.80;99.90
5334;DHT22;2689;50.954;7.116;2023-12-22T13:23:17;10.90;99.90
5334;DHT22;2689;50.954;7.116;2023-12-22T13:25:45;10.90;99.90
5334;DHT22;2689;50.954;7.116;2023-12-22T13:28:12;10.90;99.90
5334;DHT22;2689;50.954;7.116;2023-12-22T13:30:40;10.90;99.90
5334;DHT22;2689;50.954;7.116;2023-12-22T13:33:13;11.00;99.90
5334;DHT22;2689;50.954;7.116;2023-12-22T13:35:40;11.00;99.90
5334;DHT22;2689;50.954;7.116;2023-12-22T13:38:07;11.00;99.90
5334;DHT22;2689;50.954;7.116;2023-12-22T13:40:35;11.00;99.90
5334;DHT22;2689;50.954;7.116;2023-12-22T13:43:04;11.00;99.90
5334;DHT22;2689;50.954;7.116;2023-12-22T13:45:32;10.90;99.90
5334;DHT22;2689;50.954;7.116;2023-12-22T13:48:00;10.90;99.90
5334;DHT22;2689;50.954;7.116;2023-12-22T13:50:29;10.90;99.90
5334;DHT22;2689;50.954;7.116;2023-12-22T13:52:56;10.80;99.90
5334;DHT22;2689;50.954;7.116;2023-12-22T13:55:33;10.90;99.90
5334;DHT22;2689;50.954;7.116;2023-12-22T13:58:03;10.90;99.90
5334;DHT22;2689;50.954;7.116;2023-12-22T14:00:30;10.90;99.90
5334;DHT22;2689;50.954;7.116;2023-12-22T14:02:58;10.80;99.90
5334;DHT22;2689;50.954;7.116;2023-12-22T14:05:24;10.90;99.90
5334;DHT22;2689;50.954;7.116;2023-12-22T14:07:56;10.80;99.90
5334;DHT22;2689;50.954;7.116;2023-12-22T14:10:23;10.80;99.90
5334;DHT22;2689;50.954;7.116;2023-12-22T14:12:50;10.80;99.90
5334;DHT22;2689;50.954;7.116;2023-12-22T14:15:18;10.80;99.90
5334;DHT22;2689;50.954;7.116;2023-12-22T14:17:46;10.80;99.90
5334;DHT22;2689;50.954;7.116;2023-12-22T14:20:13;10.80;99.90
5334;DHT22;2689;50.954;7.116;2023-12-22T14:22:41;10.80;99.90
5334;DHT22;2689;50.954;7.116;2023-12-22T14:25:10;10.70;99.90
5334;DHT22;2689;50.954;7.116;2023-12-22T14:27:37;10.60;99.90
5334;DHT22;2689;50.954;7.116;2023-12-22T14:30:06;10.50;99.90
5334;DHT22;2689;50.954;7.116;2023-12-22T14:32:33;10.30;99.90
5334;DHT22;2689;50.954;7.116;2023-12-22T14:37:56;10.20;99.90
5334;DHT22;2689;50.954;7.116;2023-12-22T14:40:25;10.10;99.90
5334;DHT22;2689;50.954;7.116;2023-12-22T14:42:54;10.00;99.90
5334;DHT22;2689;50.954;7.116;2023-12-22T14:45:21;10.00;99.90
5334;DHT22;2689;50.954;7.116;2023-12-22T14:47:48;10.00;99.90
5334;DHT22;2689;50.954;7.116;2023-12-22T14:50:15;9.90;99.90
5334;DHT22;2689;50.954;7.116;2023-12-22T14:52:43;9.90;99.90
5334;DHT22;2689;50.954;7.116;2023-12-22T14:55:10;9.80;99.90
5334;DHT22;2689;50.954;7.116;2023-12-22T14:57:39;9.90;99.90
5334;DHT22;2689;50.954;7.116;2023-12-22T15:00:08;9.80;99.90
5334;DHT22;2689;50.954;7.116;2023-12-22T15:02:36;9.80;99.90
5334;DHT22;2689;50.954;7.116;2023-12-22T15:05:03;9.80;99.90
5334;DHT22;2689;50.954;7.116;2023-12-22T15:07:31;9.80;99.90
5334;DHT22;2689;50.954;7.116;2023-12-22T15:09:58;9.80;99.90
5334;DHT22;2689;50.954;7.116;2023-12-22T15:12:25;9.80;99.90
5334;DHT22;2689;50.954;7.116;2023-12-22T15:14:56;9.90;99.90
5334;DHT22;2689;50.954;7.116;2023-12-22T15:17:23;9.90;99.90
5334;DHT22;2689;50.954;7.116;2023-12-22T15:19:53;9.90;99.90
5334;DHT22;2689;50.954;7.116;2023-12-22T15:22:22;9.90;99.90
5334;DHT22;2689;50.954;7.116;2023-12-22T15:24:50;9.90;99.90
5334;DHT22;2689;50.954;7.116;2023-12-22T15:27:35;9.90;99.90
5334;DHT22;2689;50.954;7.116;2023-12-22T15:30:07;9.90;99.90
5334;DHT22;2689;50.954;7.116;2023-12-22T15:32:34;9.90;99.90
5334;DHT22;2689;50.954;7.116;2023-12-22T15:35:01;9.90;99.90
5334;DHT22;2689;50.954;7.116;2023-12-22T15:37:28;9.90;99.90
5334;DHT22;2689;50.954;7.116;2023-12-22T15:39:55;9.90;99.90
5334;DHT22;2689;50.954;7.116;2023-12-22T15:42:22;9.90;99.90
5334;DHT22;2689;50.954;7.116;2023-12-22T15:44:50;9.80;99.90
5334;DHT22;2689;50.954;7.116;2023-12-22T15:47:18;9.80;99.90
5334;DHT22;2689;50.954;7.116;2023-12-22T15:49:46;9.80;99.90
5334;DHT22;2689;50.954;7.116;2023-12-22T15:52:13;9.80;99.90
5334;DHT22;2689;50.954;7.116;2023-12-22T15:54:40;9.80;99.90
5334;DHT22;2689;50.954;7.116;2023-12-22T15:57:07;9.80;99.90
5334;DHT22;2689;50.954;7.116;2023-12-22T15:59:34;9.70;99.90
5334;DHT22;2689;50.954;7.116;2023-12-22T16:02:01;9.70;99.90
5334;DHT22;2689;50.954;7.116;2023-12-22T16:04:33;9.70;99.90
5334;DHT22;2689;50.954;7.116;2023-12-22T16:07:00;9.70;99.90
5334;DHT22;2689;50.954;7.116;2023-12-22T16:09:27;9.70;99.90
5334;DHT22;2689;50.954;7.116;2023-12-22T16:11:55;9.70;99.90
5334;DHT22;2689;50.954;7.116;2023-12-22T16:14:24;9.80;99.90
5334;DHT22;2689;50.954;7.116;2023-12-22T16:16:54;9.80;99.90
5334;DHT22;2689;50.954;7.116;2023-12-22T16:19:21;9.80;99.90
5334;DHT22;2689;50.954;7.116;2023-12-22T16:21:49;9.80;99.90
5334;DHT22;2689;50.954;7.116;2023-12-22T16:24:18;9.90;99.90
5334;DHT22;2689;50.954;7.116;2023-12-22T16:26:46;9.80;99.90
5334;DHT22;2689;50.954;7.116;2023-12-22T16:29:26;9.80;99.90
5334;DHT22;2689;50.954;7.116;2023-12-22T16:31:53;9.80;99.90